Time;durP1;ratioP1;P1;durP2;ratioP2;P2;SDS_P1;SDS_P2;PMS_P1;PMS_P2;Temp;Humidity;BMP_temperature;BMP_pressure;BME280_temperature;BME280_humidity;BME280_pressure;Samples;Min_cycle;Max_cycle;Signal;HPM_P1;HPM_P2
2021/12/07 00:01:48;;;;;;;;;5.00;1.25;;;;;5.41;92.81;100631.03;5034153;28;45528;-66
2021/12/07 00:04:14;;;;;;;;;2.50;2.00;;;;;5.28;92.56;100610.22;5033600;28;45798;-67
2021/12/07 00:06:40;;;;;;;;;3.00;1.00;;;;;5.33;94.05;100622.38;5033758;28;45747;-67
2021/12/07 00:09:09;;;;;;;;;3.00;0.75;;;;;5.29;93.25;100628.47;5032444;28;45864;-66
2021/12/07 00:11:35;;;;;;;;;5.75;2.00;;;;;5.34;92.87;100639.75;5033981;28;45901;-66
2021/12/07 00:14:10;;;;;;;;;2.25;1.00;;;;;5.31;93.09;100639.78;5034568;28;46512;-66
2021/12/07 00:16:42;;;;;;;;;1.00;1.00;;;;;5.30;93.04;100658.03;5036535;28;45325;-68
2021/12/07 00:19:09;;;;;;;;;0.50;0.50;;;;;5.30;93.22;100664.16;5037229;28;45349;-66
2021/12/07 00:21:35;;;;;;;;;1.75;1.75;;;;;5.24;93.48;100656.31;5037451;28;45412;-67
2021/12/07 00:24:00;;;;;;;;;2.00;1.00;;;;;5.30;93.12;100658.94;5036917;28;45415;-65
2021/12/07 00:26:26;;;;;;;;;0.75;0.75;;;;;5.18;92.72;100646.75;5037337;28;45394;-65
2021/12/07 00:28:51;;;;;;;;;5.75;2.00;;;;;5.25;92.43;100665.91;5037330;28;45341;-66
2021/12/07 00:31:40;;;;;;;;;1.00;1.00;;;;;5.24;91.75;100664.16;5018118;28;45531;-67
2021/12/07 00:36:55;;;;;;;;;4.75;1.25;;;;;5.16;91.93;100647.66;5034632;28;45526;-66
2021/12/07 00:39:23;;;;;;;;;1.25;1.25;;;;;5.17;93.73;100655.47;5035030;28;45814;-66
2021/12/07 00:41:50;;;;;;;;;3.75;2.00;;;;;5.17;93.15;100655.47;5034803;28;45541;-66
2021/12/07 00:44:18;;;;;;;;;1.50;1.50;;;;;4.95;92.75;100617.25;5034448;28;45605;-66
2021/12/07 00:46:44;;;;;;;;;2.50;1.75;;;;;5.15;92.66;100659.81;5034590;28;45479;-66
2021/12/07 00:49:09;;;;;;;;;4.50;0.50;;;;;5.14;92.69;100655.50;5036446;28;45397;-66
2021/12/07 00:51:35;;;;;;;;;2.25;1.00;;;;;5.10;92.28;100651.16;5038455;28;45404;-67
2021/12/07 00:54:00;;;;;;;;;3.25;1.00;;;;;5.09;92.30;100652.00;5037874;28;46289;-66
2021/12/07 00:56:26;;;;;;;;;1.25;1.00;;;;;5.05;92.79;100659.00;5037955;28;45468;-66
2021/12/07 00:58:51;;;;;;;;;3.00;2.00;;;;;5.01;93.10;100649.41;5038254;28;45516;-66
2021/12/07 01:01:18;;;;;;;;;2.75;2.75;;;;;4.96;92.56;100632.03;5021866;28;45388;-66
2021/12/07 01:03:44;;;;;;;;;1.75;1.75;;;;;5.03;93.23;100665.06;5038000;28;45694;-66
2021/12/07 01:06:25;;;;;;;;;1.25;1.00;;;;;5.05;91.90;100674.66;5037885;28;45315;-67
2021/12/07 01:25:08;;;;;;;;;2.75;1.50;;;;;4.96;92.80;100710.31;5040031;28;45392;-66
2021/12/07 01:27:34;;;;;;;;;7.00;3.00;;;;;4.80;91.89;100693.78;5039975;28;45475;-66
2021/12/07 01:30:34;;;;;;;;;2.50;1.50;;;;;4.85;91.66;100715.50;5039609;28;45403;-66
2021/12/07 01:40:56;;;;;;;;;3.00;1.00;;;;;4.86;92.14;100743.34;5040139;28;45286;-66
2021/12/07 02:01:32;;;;;;;;;3.00;1.00;;;;;4.75;91.32;100745.06;5038394;28;45450;-67
2021/12/07 02:03:57;;;;;;;;;3.00;1.00;;;;;4.77;90.83;100748.56;5039664;28;45342;-67
2021/12/07 02:06:22;;;;;;;;;1.00;1.00;;;;;4.75;91.55;100745.97;5039299;28;45473;-66
2021/12/07 02:08:48;;;;;;;;;2.00;1.00;;;;;4.71;91.02;100752.03;5038907;28;45410;-65
2021/12/07 02:11:13;;;;;;;;;3.25;0.00;;;;;4.68;90.75;100744.22;5039475;28;45372;-67
2021/12/07 02:16:06;;;;;;;;;2.75;1.00;;;;;4.69;91.54;100745.91;5039051;28;45963;-65
2021/12/07 02:18:31;;;;;;;;;5.00;1.00;;;;;4.66;90.81;100751.13;5039269;28;45238;-66
2021/12/07 02:21:12;;;;;;;;;1.00;1.00;;;;;4.62;91.28;100746.78;5039416;28;45236;-65
2021/12/07 02:23:37;;;;;;;;;2.00;1.00;;;;;4.63;91.29;100748.53;5039556;28;45317;-65
2021/12/07 02:26:03;;;;;;;;;2.50;1.25;;;;;4.68;91.16;100768.53;5039224;28;46252;-65
2021/12/07 02:28:29;;;;;;;;;7.00;1.00;;;;;4.61;90.95;100768.53;5039132;28;45402;-65
2021/12/07 02:30:54;;;;;;;;;1.75;0.00;;;;;4.64;91.45;100781.56;5038847;28;45320;-65
2021/12/07 02:33:19;;;;;;;;;3.00;1.00;;;;;4.40;91.02;100738.06;5039422;28;45210;-65
2021/12/07 02:35:45;;;;;;;;;3.25;1.00;;;;;4.61;91.27;100777.22;5038712;28;46438;-65
2021/12/07 02:38:10;;;;;;;;;2.25;1.00;;;;;4.61;91.50;100776.34;5038617;28;45355;-64
2021/12/07 02:40:36;;;;;;;;;3.00;0.75;;;;;4.59;91.25;100772.84;5038930;28;45406;-65
2021/12/07 02:43:01;;;;;;;;;1.00;1.00;;;;;4.48;90.71;100752.00;5039278;28;45333;-65
2021/12/07 02:45:27;;;;;;;;;1.00;1.00;;;;;4.48;91.31;100770.25;5038238;28;45591;-64
2021/12/07 02:47:52;;;;;;;;;2.75;1.75;;;;;4.49;91.08;100766.78;5038826;28;45360;-64
2021/12/07 02:50:18;;;;;;;;;1.50;1.00;;;;;4.51;91.26;100770.25;5039108;28;45390;-64
2021/12/07 02:52:44;;;;;;;;;1.00;1.00;;;;;4.39;91.21;100755.44;5038859;28;45247;-64
2021/12/07 02:55:11;;;;;;;;;0.25;0.25;;;;;4.36;90.85;100758.03;5038792;28;45422;-64
2021/12/07 02:57:36;;;;;;;;;3.00;1.75;;;;;4.46;90.94;100779.78;5038577;28;45366;-64
2021/12/07 03:00:14;;;;;;;;;10.67;10.67;;;;;4.27;90.68;100748.47;5038482;28;45314;-64
2021/12/07 03:02:46;;;;;;;;;2.50;1.00;;;;;4.30;91.28;100761.50;5039090;28;45237;-64
2021/12/07 03:08:44;;;;;;;;;2.50;1.00;;;;;4.33;91.13;100760.66;5038427;28;45282;-65
2021/12/07 03:27:26;;;;;;;;;2.25;2.25;;;;;4.30;91.56;100774.53;4996120;28;45765;-67
2021/12/07 03:29:51;;;;;;;;;4.25;2.00;;;;;4.26;91.50;100770.16;4995232;28;45407;-67
2021/12/07 03:32:17;;;;;;;;;8.25;2.00;;;;;4.19;91.59;100752.78;4996370;28;45379;-68
2021/12/07 03:34:42;;;;;;;;;2.00;2.00;;;;;4.28;91.82;100768.41;4996511;28;45450;-67
2021/12/07 03:37:08;;;;;;;;;1.00;0.50;;;;;4.23;91.08;100771.91;4996213;28;46098;-68
2021/12/07 03:39:33;;;;;;;;;3.25;3.25;;;;;4.28;91.51;100778.00;4996027;28;45485;-68
2021/12/07 03:41:59;;;;;;;;;1.75;1.00;;;;;4.25;91.90;100775.38;4996412;28;45488;-67
2021/12/07 03:44:24;;;;;;;;;2.50;1.00;;;;;4.18;91.64;100769.25;4996332;28;45540;-67
2021/12/07 03:46:50;;;;;;;;;4.75;2.75;;;;;4.21;91.74;100777.09;4995544;28;45498;-67
2021/12/07 03:49:15;;;;;;;;;7.50;2.00;;;;;4.18;91.53;100777.06;4995966;28;45549;-67
2021/12/07 03:51:44;;;;;;;;;2.50;1.50;;;;;4.23;92.56;100793.63;4996022;28;45380;-67
2021/12/07 03:54:10;;;;;;;;;3.00;2.75;;;;;4.19;91.49;100789.25;4995727;28;45619;-67
2021/12/07 03:56:35;;;;;;;;;4.25;2.00;;;;;4.13;91.60;100790.09;5000033;28;45333;-67
2021/12/07 03:59:01;;;;;;;;;6.25;3.00;;;;;4.19;91.89;100803.13;5037644;28;45574;-66
2021/12/07 04:01:26;;;;;;;;;2.75;2.25;;;;;4.17;91.82;100802.28;5037782;28;45300;-65
2021/12/07 04:03:52;;;;;;;;;3.75;2.50;;;;;4.15;92.64;100800.53;5037969;28;45400;-65
2021/12/07 04:06:20;;;;;;;;;4.75;3.00;;;;;3.96;91.98;100773.50;5037146;28;46564;-64
2021/12/07 04:08:45;;;;;;;;;4.25;2.50;;;;;4.09;91.79;100795.28;5037387;28;45433;-65
2021/12/07 04:11:12;;;;;;;;;2.25;2.25;;;;;4.14;92.15;100812.69;5037561;28;45515;-66
2021/12/07 04:13:38;;;;;;;;;2.25;2.25;;;;;4.10;92.26;100807.47;5037674;28;45372;-67
2021/12/07 04:16:05;;;;;;;;;1.25;1.25;;;;;4.15;92.37;100814.44;5037277;28;46382;-66
2021/12/07 04:18:31;;;;;;;;;5.50;4.25;;;;;4.11;92.32;100814.41;5037368;28;45246;-65
2021/12/07 04:20:57;;;;;;;;;5.50;3.00;;;;;4.16;91.87;100823.13;5037461;28;45679;-65
2021/12/07 04:23:23;;;;;;;;;3.50;3.00;;;;;4.12;91.74;100819.63;5036757;28;45233;-65
2021/12/07 04:25:48;;;;;;;;;4.50;4.25;;;;;4.11;91.28;100824.81;5037547;28;46312;-63
2021/12/07 04:28:14;;;;;;;;;6.25;3.25;;;;;4.01;91.57;100816.09;5037348;28;45438;-63
2021/12/07 04:30:42;;;;;;;;;3.50;1.75;;;;;4.03;91.99;100816.97;5036927;28;45366;-63
2021/12/07 04:33:10;;;;;;;;;4.25;2.25;;;;;3.97;91.31;100807.38;5037450;28;45449;-63
2021/12/07 04:35:39;;;;;;;;;3.75;2.00;;;;;4.05;91.54;100823.03;5037189;28;45454;-63
2021/12/07 04:38:05;;;;;;;;;6.00;2.00;;;;;3.97;90.93;100811.75;5037168;28;45384;-63
2021/12/07 04:40:31;;;;;;;;;3.25;1.25;;;;;3.93;92.04;100794.34;5037344;28;45345;-63
2021/12/07 04:42:58;;;;;;;;;3.00;1.75;;;;;3.88;91.71;100790.81;5037352;28;45380;-63
2021/12/07 04:45:37;;;;;;;;;4.00;1.25;;;;;3.96;91.80;100797.81;5036939;28;47267;-63
2021/12/07 04:58:35;;;;;;;;;8.50;4.00;;;;;3.92;92.04;100811.72;5036910;28;45315;-63
2021/12/07 05:01:08;;;;;;;;;7.00;3.00;;;;;3.82;90.63;100799.50;5036955;28;45414;-63
2021/12/07 05:03:33;;;;;;;;;8.00;5.00;;;;;3.81;90.26;100818.59;5037080;28;45461;-63
2021/12/07 05:05:59;;;;;;;;;3.00;2.75;;;;;3.65;90.44;100818.47;5036942;28;45377;-64
2021/12/07 05:09:03;;;;;;;;;5.50;2.00;;;;;3.64;91.03;100823.69;5036874;28;45397;-63
2021/12/07 05:24:23;;;;;;;;;7.00;6.00;;;;;3.51;91.74;100866.97;5036732;28;45161;-64
2021/12/07 05:40:28;;;;;;;;;2.00;1.00;;;;;3.53;91.80;100841.84;5039092;28;45519;-64
2021/12/07 05:42:54;;;;;;;;;1.50;1.00;;;;;3.53;91.81;100836.63;5039590;28;45358;-64
2021/12/07 05:45:27;;;;;;;;;6.25;3.75;;;;;3.37;91.54;100811.31;5039891;28;45389;-64
2021/12/07 05:47:53;;;;;;;;;21.33;19.67;;;;;3.49;91.37;100827.06;5039605;28;45684;-64
2021/12/07 05:50:22;;;;;;;;;10.00;4.50;;;;;3.54;90.96;100827.09;5039755;28;45320;-65
2021/12/07 05:52:48;;;;;;;;;2.50;2.50;;;;;3.51;91.56;100814.91;5039855;28;45380;-64
2021/12/07 05:55:15;;;;;;;;;3.00;2.00;;;;;3.49;90.75;100811.44;5039862;28;45510;-64
2021/12/07 05:57:40;;;;;;;;;5.50;5.00;;;;;3.36;91.80;100807.00;5039491;28;47411;-64
2021/12/07 06:00:10;;;;;;;;;3.00;3.00;;;;;3.37;90.76;100807.00;5039696;28;45452;-66
2021/12/07 06:02:36;;;;;;;;;6.00;3.00;;;;;3.35;91.03;100813.91;5039500;28;45342;-66
2021/12/07 06:05:03;;;;;;;;;2.75;2.00;;;;;3.33;91.50;100820.00;5039716;28;45362;-66
2021/12/07 06:07:28;;;;;;;;;1.50;1.50;;;;;3.33;91.46;100817.41;5039518;28;45419;-66
2021/12/07 06:09:53;;;;;;;;;8.67;8.00;;;;;3.36;92.20;100817.41;5039411;28;45564;-66
2021/12/07 06:12:19;;;;;;;;;7.00;5.00;;;;;3.26;93.03;100808.66;5039494;28;45318;-66
2021/12/07 06:14:44;;;;;;;;;4.25;3.50;;;;;3.26;93.02;100814.72;5039679;28;45272;-67
2021/12/07 06:17:12;;;;;;;;;3.00;3.00;;;;;3.34;91.47;100825.22;5038910;28;46177;-66
2021/12/07 06:19:38;;;;;;;;;5.25;3.50;;;;;3.36;92.08;100836.50;5039268;28;45373;-66
2021/12/07 06:22:05;;;;;;;;;5.75;2.50;;;;;3.37;91.78;100826.94;5039256;28;45513;-67
2021/12/07 06:24:31;;;;;;;;;20.67;17.33;;;;;3.26;92.19;100817.31;5039302;28;45231;-67
2021/12/07 06:26:58;;;;;;;;;11.50;8.25;;;;;3.31;91.56;100817.34;5039016;28;47242;-67
2021/12/07 06:29:23;;;;;;;;;11.75;7.00;;;;;3.40;91.07;100829.56;5039017;28;45575;-67
2021/12/07 06:31:49;;;;;;;;;5.75;4.75;;;;;3.30;91.27;100821.69;5039049;28;45290;-67
2021/12/07 06:34:15;;;;;;;;;9.00;6.00;;;;;3.25;91.94;100830.31;5039322;28;45419;-67
2021/12/07 06:36:40;;;;;;;;;13.67;11.33;;;;;3.21;91.84;100828.53;5038835;28;46322;-67
2021/12/07 06:39:09;;;;;;;;;14.33;11.00;;;;;3.23;93.42;100826.84;5038840;28;45364;-67
2021/12/07 06:41:35;;;;;;;;;17.00;15.33;;;;;3.22;92.49;100827.69;5038840;28;45492;-67
2021/12/07 06:44:00;;;;;;;;;10.00;6.00;;;;;3.19;91.57;100833.72;5039050;28;45421;-67
2021/12/07 06:46:26;;;;;;;;;7.00;6.00;;;;;3.17;91.85;100832.00;5037810;28;46468;-67
2021/12/07 06:48:51;;;;;;;;;5.50;5.00;;;;;3.10;91.93;100825.84;5038899;28;45247;-67
2021/12/07 06:51:17;;;;;;;;;7.25;6.75;;;;;3.10;91.78;100831.91;5039076;28;45440;-67
2021/12/07 06:53:42;;;;;;;;;14.00;11.67;;;;;3.06;93.31;100821.47;5039430;28;45272;-67
2021/12/07 06:56:09;;;;;;;;;7.00;5.75;;;;;3.12;92.54;100831.94;5038850;28;45592;-67
2021/12/07 06:58:35;;;;;;;;;7.33;7.00;;;;;3.13;92.46;100823.28;5038699;28;45351;-66
2021/12/07 07:01:03;;;;;;;;;10.75;9.00;;;;;3.09;92.68;100808.50;5038362;28;45484;-66
2021/12/07 07:03:28;;;;;;;;;13.50;10.00;;;;;3.13;92.54;100818.06;5039037;28;45464;-66
2021/12/07 07:05:54;;;;;;;;;12.75;9.25;;;;;3.09;92.87;100806.78;5038596;28;46119;-68
2021/12/07 07:08:19;;;;;;;;;17.67;16.00;;;;;3.12;93.65;100808.53;5038553;28;45479;-66
2021/12/07 07:10:46;;;;;;;;;12.50;11.00;;;;;2.84;93.05;100764.06;5038570;28;45256;-66
2021/12/07 07:13:12;;;;;;;;;12.25;7.50;;;;;3.11;92.53;100799.84;5038262;28;45464;-66
2021/12/07 07:15:38;;;;;;;;;10.75;7.75;;;;;2.99;92.46;100776.31;5038425;28;46093;-67
2021/12/07 07:18:03;;;;;;;;;14.75;7.25;;;;;3.00;93.21;100772.00;5038190;28;45557;-68
2021/12/07 07:20:29;;;;;;;;;12.50;10.75;;;;;2.98;92.30;100785.00;5038520;28;45417;-67
2021/12/07 07:22:54;;;;;;;;;14.00;10.50;;;;;2.84;93.02;100760.59;5038341;28;45284;-67
2021/12/07 07:25:19;;;;;;;;;12.50;10.75;;;;;2.66;92.98;100725.78;5038003;28;46471;-67
2021/12/07 07:27:46;;;;;;;;;11.25;6.75;;;;;2.94;93.63;100768.50;5038141;28;45403;-66
2021/12/07 07:30:15;;;;;;;;;13.50;10.75;;;;;2.95;93.24;100775.44;5037949;28;45385;-66
2021/12/07 07:32:41;;;;;;;;;6.00;5.75;;;;;2.83;92.69;100751.91;5038151;28;46470;-66
2021/12/07 07:35:08;;;;;;;;;5.75;5.75;;;;;2.85;92.26;100749.34;5038109;28;46453;-67
2021/12/07 07:37:34;;;;;;;;;6.50;6.00;;;;;2.94;92.75;100765.03;5038166;28;45378;-70
2021/12/07 07:39:59;;;;;;;;;7.50;6.00;;;;;2.99;92.50;100768.53;5038316;28;45264;-70
2021/12/07 07:42:27;;;;;;;;;23.67;19.67;;;;;2.94;92.72;100754.63;5038179;28;45548;-69
2021/12/07 07:44:52;;;;;;;;;13.25;8.25;;;;;2.89;92.59;100743.28;5037619;28;47190;-69
2021/12/07 07:47:18;;;;;;;;;9.75;5.75;;;;;2.92;93.05;100748.53;5037507;28;45658;-72
2021/12/07 07:49:43;;;;;;;;;9.00;7.33;;;;;2.76;93.13;100722.41;5038058;28;45480;-69
2021/12/07 07:52:09;;;;;;;;;10.75;9.75;;;;;2.89;92.78;100739.00;5038057;28;45370;-69
2021/12/07 07:54:34;;;;;;;;;6.25;5.75;;;;;2.91;92.96;100744.19;5037278;28;45460;-69
2021/12/07 07:57:00;;;;;;;;;11.25;7.00;;;;;2.95;92.47;100740.78;5036697;28;45409;-69
2021/12/07 07:59:25;;;;;;;;;42.33;38.33;;;;;2.89;92.21;100723.38;5034846;28;45514;-69
2021/12/07 08:01:51;;;;;;;;;12.75;10.00;;;;;2.93;92.35;100719.97;5036448;28;45376;-69
2021/12/07 08:04:17;;;;;;;;;13.33;10.67;;;;;2.95;92.49;100730.38;5036034;28;45663;-68
2021/12/07 08:06:42;;;;;;;;;11.00;6.50;;;;;2.92;92.24;100725.13;5032990;28;45520;-69
2021/12/07 08:09:08;;;;;;;;;6.75;6.75;;;;;2.96;92.16;100730.38;5034817;28;45740;-69
2021/12/07 08:11:34;;;;;;;;;10.00;6.75;;;;;3.01;92.04;100732.16;5033710;28;45961;-69
2021/12/07 08:14:00;;;;;;;;;11.00;7.00;;;;;2.90;91.65;100706.03;5033634;28;46065;-69
2021/12/07 08:16:25;;;;;;;;;10.00;8.25;;;;;3.05;93.88;100733.88;5033526;28;45934;-70
2021/12/07 08:18:52;;;;;;;;;10.25;7.00;;;;;3.03;92.21;100733.03;5033610;28;45481;-70
2021/12/07 08:21:19;;;;;;;;;10.00;6.00;;;;;3.10;92.69;100735.66;5033810;28;45857;-70
2021/12/07 08:23:45;;;;;;;;;7.00;7.00;;;;;3.14;91.33;100747.84;5033431;28;45717;-70
2021/12/07 08:26:14;;;;;;;;;7.00;6.75;;;;;3.19;91.30;100758.28;5033601;28;45827;-70
2021/12/07 08:28:40;;;;;;;;;14.67;14.00;;;;;3.05;91.75;100719.19;5033428;28;45535;-70
2021/12/07 08:31:06;;;;;;;;;15.50;8.50;;;;;3.13;90.98;100720.09;5033460;28;45670;-70
2021/12/07 08:33:32;;;;;;;;;6.50;5.00;;;;;3.24;91.25;100740.09;5033079;28;45760;-70
2021/12/07 08:36:00;;;;;;;;;7.50;6.25;;;;;3.27;91.39;100745.34;5033476;28;45417;-69
2021/12/07 08:38:26;;;;;;;;;8.25;7.00;;;;;3.30;90.97;100733.22;5033347;28;45914;-70
2021/12/07 08:40:55;;;;;;;;;45.00;40.00;;;;;3.30;91.29;100727.16;5033612;28;45737;-70
2021/12/07 08:43:22;;;;;;;;;12.00;12.00;;;;;3.39;90.90;100740.22;5033111;28;46582;-70
2021/12/07 08:45:49;;;;;;;;;18.33;14.33;;;;;3.31;91.19;100716.75;5033173;28;45507;-70
2021/12/07 08:48:18;;;;;;;;;16.25;6.75;;;;;3.51;91.04;100734.22;5032882;28;45479;-71
2021/12/07 08:50:44;;;;;;;;;12.50;9.75;;;;;3.52;90.85;100709.06;5033526;28;45335;-71
2021/12/07 08:53:13;;;;;;;;;11.25;9.50;;;;;3.71;90.72;100723.06;5033104;28;47294;-70
2021/12/07 09:01:12;;;;;;;;;4.25;4.25;;;;;3.95;89.54;100704.94;5033405;28;45374;-70
2021/12/07 09:03:38;;;;;;;;;6.25;5.25;;;;;4.09;89.68;100710.16;5032390;28;47330;-70
2021/12/07 09:06:04;;;;;;;;;14.00;10.50;;;;;4.19;89.42;100717.13;5032939;28;45412;-70
2021/12/07 09:08:30;;;;;;;;;13.50;11.00;;;;;4.27;89.47;100711.97;5033093;28;45441;-70
2021/12/07 09:10:55;;;;;;;;;12.50;7.50;;;;;4.29;88.66;100706.75;5035514;28;45694;-69
2021/12/07 09:13:23;;;;;;;;;8.00;5.50;;;;;4.10;88.62;100664.16;5047650;28;46768;-69
2021/12/07 09:15:51;;;;;;;;;19.25;6.25;;;;;4.37;88.41;100689.38;5042310;28;45388;-70
2021/12/07 09:18:17;;;;;;;;;8.75;7.00;;;;;4.43;88.07;100686.81;5051723;28;45536;-70
2021/12/07 09:20:42;;;;;;;;;9.25;6.75;;;;;4.27;87.78;100649.44;5052050;28;45412;-70
2021/12/07 09:23:08;;;;;;;;;83.00;64.25;;;;;4.35;88.06;100650.28;5038506;28;46331;-69
2021/12/07 09:25:33;;;;;;;;;14.25;8.50;;;;;4.56;87.76;100652.91;5054426;28;45502;-69
2021/12/07 09:27:59;;;;;;;;;7.75;7.25;;;;;4.62;87.10;100648.56;5053648;28;45352;-69
2021/12/07 09:30:24;;;;;;;;;12.25;7.00;;;;;4.47;87.54;100601.63;5045352;28;45531;-69
2021/12/07 09:32:50;;;;;;;;;6.00;6.00;;;;;4.87;87.39;100643.34;5035863;28;45515;-69
2021/12/07 09:35:16;;;;;;;;;12.25;9.75;;;;;4.89;86.63;100620.72;5036016;28;45473;-70
2021/12/07 09:37:42;;;;;;;;;12.75;9.50;;;;;5.12;85.82;100625.03;5036245;28;45496;-69
2021/12/07 09:40:11;;;;;;;;;12.00;7.75;;;;;5.20;85.96;100615.47;5036127;28;45796;-73
2021/12/07 09:42:38;;;;;;;;;10.75;8.00;;;;;5.32;85.56;100615.41;5035679;28;45477;-70
2021/12/07 09:45:06;;;;;;;;;12.00;6.00;;;;;5.37;84.34;100598.00;5035842;28;45489;-70
2021/12/07 09:47:31;;;;;;;;;7.00;7.00;;;;;5.53;85.47;100617.09;5035660;28;45476;-69
2021/12/07 09:49:57;;;;;;;;;7.25;6.00;;;;;5.48;84.67;100608.38;5018870;28;45632;-69
2021/12/07 09:52:24;;;;;;;;;9.50;8.25;;;;;5.57;85.45;100618.78;5035751;28;46460;-69
2021/12/07 09:54:50;;;;;;;;;11.75;10.25;;;;;5.50;85.39;100597.94;5035695;28;45445;-69
2021/12/07 09:57:16;;;;;;;;;7.00;7.00;;;;;5.46;84.08;100578.81;5035928;28;45462;-69
2021/12/07 09:59:44;;;;;;;;;14.50;7.00;;;;;5.40;84.23;100563.16;5035661;28;45428;-69
2021/12/07 10:02:10;;;;;;;;;1.50;0.50;;;;;5.41;84.18;100547.47;5034948;28;46697;-70
2021/12/07 10:04:35;;;;;;;;;12.00;9.50;;;;;5.34;85.32;100542.31;5035450;28;45525;-69
2021/12/07 10:07:01;;;;;;;;;11.75;7.75;;;;;5.51;86.61;100566.59;5035653;28;45484;-70
2021/12/07 10:09:27;;;;;;;;;9.75;8.00;;;;;5.37;86.18;100532.72;5035751;28;45631;-68
2021/12/07 10:11:53;;;;;;;;;6.25;6.00;;;;;5.57;85.80;100558.72;5034950;28;45744;-69
2021/12/07 10:14:19;;;;;;;;;7.25;5.50;;;;;5.58;85.61;100541.31;5035621;28;45625;-70
2021/12/07 10:16:48;;;;;;;;;11.33;8.00;;;;;5.73;86.09;100545.59;5035094;28;45826;-69
2021/12/07 10:19:29;;;;;;;;;4.00;4.00;;;;;5.79;85.06;100545.53;5035487;28;45452;-70
2021/12/07 10:22:07;;;;;;;;;13.00;7.50;;;;;5.87;86.15;100529.81;5034086;28;45706;-70
2021/12/07 10:24:47;;;;;;;;;9.00;7.00;;;;;5.86;84.93;100521.09;5015412;28;45807;-69
2021/12/07 10:27:30;;;;;;;;;9.00;8.50;;;;;5.86;84.59;100501.97;5026429;28;45435;-70
2021/12/07 10:29:55;;;;;;;;;9.00;7.50;;;;;5.95;85.90;100512.31;5035576;28;45911;-70
2021/12/07 10:32:20;;;;;;;;;14.00;6.75;;;;;6.08;85.64;100520.97;5035050;28;46428;-70
2021/12/07 10:34:46;;;;;;;;;9.25;6.25;;;;;6.12;84.71;100504.41;5035321;28;45464;-70
2021/12/07 10:37:15;;;;;;;;;3.75;3.00;;;;;6.19;84.83;100479.94;5035343;28;45503;-70
2021/12/07 10:39:50;;;;;;;;;7.00;5.50;;;;;6.33;85.59;100478.94;5034844;28;45465;-70
2021/12/07 10:42:20;;;;;;;;;6.75;6.75;;;;;6.42;84.10;100464.03;5034881;28;46203;-70
2021/12/07 10:44:46;;;;;;;;;4.50;4.50;;;;;6.44;83.61;100448.31;5034855;28;45420;-70
2021/12/07 10:47:14;;;;;;;;;9.00;5.25;;;;;6.41;85.22;100438.75;5034347;28;45405;-70
2021/12/07 10:49:46;;;;;;;;;8.50;4.75;;;;;6.42;84.20;100443.09;5035398;28;45533;-71
2021/12/07 10:52:24;;;;;;;;;1.75;1.25;;;;;6.38;83.75;100449.25;5030946;28;45910;-70
2021/12/07 10:55:08;;;;;;;;;11.00;7.00;;;;;6.36;84.94;100443.19;5036367;28;45568;-71
2021/12/07 10:57:39;;;;;;;;;11.50;7.75;;;;;6.40;84.46;100430.91;5036765;28;45581;-70
2021/12/07 11:00:22;;;;;;;;;11.00;8.00;;;;;6.31;84.04;100417.97;5044499;28;45592;-69
2021/12/07 11:02:56;;;;;;;;;11.25;8.50;;;;;6.37;85.32;100434.44;5034192;28;46475;-69
2021/12/07 11:05:27;;;;;;;;;14.00;8.25;;;;;6.18;85.68;100391.06;5034743;28;45708;-69
2021/12/07 11:07:52;;;;;;;;;9.25;7.50;;;;;6.46;85.99;100441.31;5034415;28;45527;-71
2021/12/07 11:10:29;;;;;;;;;10.00;9.25;;;;;6.52;86.29;100435.16;5034486;28;45576;-70
2021/12/07 11:13:19;;;;;;;;;10.75;9.00;;;;;6.54;85.19;100429.03;5034499;28;46545;-70
2021/12/07 11:15:50;;;;;;;;;7.25;4.75;;;;;6.55;85.36;100398.50;5034610;28;45736;-70
2021/12/07 11:18:32;;;;;;;;;9.25;7.25;;;;;6.46;85.03;100373.31;5034653;28;45432;-70
2021/12/07 11:21:03;;;;;;;;;5.00;5.00;;;;;6.52;85.70;100362.78;5034712;28;46039;-70
2021/12/07 11:23:32;;;;;;;;;5.50;4.00;;;;;6.48;85.08;100344.53;5034173;28;46431;-71
2021/12/07 11:31:22;;;;;;;;;10.00;7.75;;;;;6.28;85.93;100338.66;5014599;28;45461;-71
2021/12/07 11:33:50;;;;;;;;;8.00;8.00;;;;;6.28;85.99;100324.72;5013846;28;46178;-71
2021/12/07 11:36:18;;;;;;;;;15.75;9.75;;;;;6.26;87.11;100316.91;5014257;28;45764;-72
2021/12/07 11:38:44;;;;;;;;;14.33;12.67;;;;;6.26;87.27;100313.44;5015248;28;45580;-71
2021/12/07 11:41:15;;;;;;;;;12.25;10.75;;;;;6.31;87.11;100311.63;5034172;28;45477;-71
2021/12/07 11:44:10;;;;;;;;;16.00;11.50;;;;;6.36;87.67;100309.81;5033994;28;46345;-72
2021/12/07 11:46:38;;;;;;;;;9.50;8.00;;;;;6.44;88.04;100313.19;4971941;28;45758;-71
2021/12/07 11:49:22;;;;;;;;;10.25;9.00;;;;;6.46;87.66;100292.25;4971853;28;45934;-73
2021/12/07 11:51:51;;;;;;;;;9.75;6.00;;;;;6.47;87.44;100286.13;4975621;28;45525;-74
2021/12/07 11:54:18;;;;;;;;;12.00;7.25;;;;;6.51;87.50;100271.28;4982543;28;45585;-72
2021/12/07 11:56:46;;;;;;;;;6.25;6.25;;;;;6.55;87.19;100263.38;4989609;28;45475;-72
2021/12/07 11:59:13;;;;;;;;;4.75;3.75;;;;;6.56;86.79;100246.75;4980412;28;45642;-72
2021/12/07 12:01:39;;;;;;;;;2.75;2.00;;;;;6.60;87.14;100244.97;4982367;28;45483;-72
2021/12/07 12:04:05;;;;;;;;;7.75;4.50;;;;;6.59;86.51;100217.97;4982860;28;45568;-73
2021/12/07 12:06:32;;;;;;;;;7.00;4.00;;;;;6.62;87.11;100227.50;4986815;28;45479;-72
2021/12/07 12:08:58;;;;;;;;;9.50;4.00;;;;;6.63;86.14;100219.63;4991452;28;45415;-71
2021/12/07 12:11:41;;;;;;;;;5.75;4.25;;;;;6.63;87.16;100210.94;4978705;28;45491;-71
2021/12/07 12:14:41;;;;;;;;;9.50;5.25;;;;;6.64;86.19;100202.19;4973094;28;45866;-72
2021/12/07 12:17:29;;;;;;;;;11.50;7.25;;;;;6.60;86.98;100188.28;4981390;28;45946;-72
2021/12/07 12:20:29;;;;;;;;;7.50;3.75;;;;;6.52;86.65;100174.47;4981721;28;46003;-70
2021/12/07 12:23:10;;;;;;;;;10.75;7.50;;;;;6.57;86.80;100177.03;5019134;28;45502;-70
2021/12/07 12:25:36;;;;;;;;;10.00;8.00;;;;;6.51;86.56;100158.81;5051935;28;46741;-71
2021/12/07 12:28:02;;;;;;;;;9.00;9.00;;;;;6.56;87.29;100149.97;5035282;28;46277;-70
2021/12/07 12:30:37;;;;;;;;;9.25;7.00;;;;;6.57;86.88;100136.03;5038564;28;46000;-70
2021/12/07 12:33:09;;;;;;;;;9.25;7.00;;;;;6.56;86.78;100131.69;5043619;28;45741;-70
2021/12/07 12:35:49;;;;;;;;;13.00;9.75;;;;;6.57;86.98;100128.19;5047634;28;47242;-71
2021/12/07 12:38:18;;;;;;;;;11.00;10.25;;;;;6.58;86.69;100111.59;5030063;28;45550;-71
2021/12/07 12:40:56;;;;;;;;;10.50;8.75;;;;;6.62;86.88;100115.03;5043778;28;45765;-73
2021/12/07 12:43:52;;;;;;;;;9.25;9.00;;;;;6.52;87.03;100082.94;5036322;28;45753;-74
2021/12/07 12:46:29;;;;;;;;;8.75;7.50;;;;;6.67;86.51;100097.50;5032964;28;46392;-71
2021/12/07 12:48:58;;;;;;;;;8.25;6.50;;;;;6.64;86.49;100084.47;5046512;28;45531;-71
2021/12/07 12:51:27;;;;;;;;;12.25;6.00;;;;;6.65;86.37;100085.34;5046905;28;46165;-73
2021/12/07 12:53:53;;;;;;;;;8.25;4.75;;;;;6.67;85.58;100075.72;5034121;28;45760;-74
2021/12/07 12:56:27;;;;;;;;;3.00;3.00;;;;;6.66;86.08;100066.16;5036692;28;47239;-74
2021/12/07 12:58:55;;;;;;;;;7.00;4.50;;;;;6.67;86.10;100070.50;5041613;28;45459;-71
2021/12/07 13:01:36;;;;;;;;;6.75;4.50;;;;;6.71;86.61;100054.72;5044634;28;45939;-71
2021/12/07 13:04:12;;;;;;;;;7.00;7.00;;;;;6.74;87.09;100046.81;5053301;28;45610;-71
2021/12/07 13:06:54;;;;;;;;;8.25;5.75;;;;;6.80;86.82;100045.84;5038852;28;46733;-70
2021/12/07 13:09:20;;;;;;;;;6.75;6.50;;;;;6.86;86.72;100043.09;5032912;28;45745;-71
2021/12/07 13:11:57;;;;;;;;;9.50;7.25;;;;;6.92;85.56;100032.50;5033022;28;45774;-71
2021/12/07 13:14:22;;;;;;;;;4.00;4.00;;;;;6.90;85.69;100036.91;5033434;28;45876;-72
2021/12/07 13:17:03;;;;;;;;;6.50;5.25;;;;;6.82;86.30;100027.50;5032776;28;47328;-71
2021/12/07 13:19:29;;;;;;;;;7.75;4.00;;;;;6.88;85.89;100020.34;5032637;28;45508;-71
2021/12/07 13:22:05;;;;;;;;;7.75;7.50;;;;;6.82;86.52;100023.09;5032765;28;45961;-71
2021/12/07 13:24:38;;;;;;;;;7.75;5.75;;;;;6.79;86.32;100016.16;5033236;28;45440;-71
2021/12/07 13:27:10;;;;;;;;;6.50;5.00;;;;;6.76;86.74;100016.22;5032752;28;45678;-71
2021/12/07 13:29:38;;;;;;;;;10.50;5.25;;;;;6.76;86.76;100028.47;5040637;28;46682;-71
2021/12/07 13:32:05;;;;;;;;;8.00;6.00;;;;;6.83;86.22;100019.59;5046862;28;45515;-72